TimeEST,TemperatureF,Dew PointF,Humidity,Sea Level PressureIn,VisibilityMPH,Wind Direction,Wind SpeedMPH,Gust SpeedMPH,PrecipitationIn,Events,Conditions,WindDirDegrees,DateUTC
12:53 AM,34.0,19.0,54,30.33,10.0,South,11.5,-,N/A,,Clear,180,2013-01-19 05:53:00
1:53 AM,35.1,17.1,48,30.32,10.0,South,9.2,-,N/A,,Clear,190,2013-01-19 06:53:00
2:53 AM,35.1,17.1,48,30.31,10.0,South,10.4,-,N/A,,Clear,170,2013-01-19 07:53:00
3:53 AM,36.0,17.1,46,30.30,10.0,South,10.4,19.6,N/A,,Clear,190,2013-01-19 08:53:00
4:53 AM,37.0,17.1,44,30.28,10.0,South,12.7,20.7,N/A,,Clear,190,2013-01-19 09:53:00
5:53 AM,37.0,17.1,44,30.28,10.0,SSW,10.4,-,N/A,,Clear,210,2013-01-19 10:53:00
6:53 AM,37.9,17.1,43,30.27,10.0,SSW,13.8,26.5,N/A,,Clear,210,2013-01-19 11:53:00
7:53 AM,37.9,19.0,47,30.28,10.0,SSW,15.0,21.9,N/A,,Clear,210,2013-01-19 12:53:00
8:53 AM,39.0,19.0,45,30.29,10.0,SSW,11.5,20.7,N/A,,Clear,200,2013-01-19 13:53:00
9:53 AM,42.1,19.9,41,30.29,10.0,SW,12.7,23.0,N/A,,Clear,220,2013-01-19 14:53:00
10:53 AM,45.0,21.0,39,30.27,10.0,SW,12.7,24.2,N/A,,Clear,220,2013-01-19 15:53:00
11:53 AM,48.9,21.0,33,30.22,10.0,SW,12.7,31.1,N/A,,Clear,220,2013-01-19 16:53:00
12:53 PM,51.1,21.9,32,30.16,10.0,SSW,15.0,25.3,N/A,,Clear,210,2013-01-19 17:53:00
1:53 PM,53.1,21.9,30,30.12,10.0,SSW,10.4,25.3,N/A,,Clear,210,2013-01-19 18:53:00
2:53 PM,53.1,21.0,29,30.08,10.0,SSW,17.3,24.2,N/A,,Clear,200,2013-01-19 19:53:00
3:53 PM,54.0,21.0,28,30.05,10.0,South,17.3,26.5,N/A,,Clear,190,2013-01-19 20:53:00
4:53 PM,53.1,19.9,27,30.03,10.0,SSW,9.2,20.7,N/A,,Clear,200,2013-01-19 21:53:00
5:53 PM,50.0,21.0,32,30.02,10.0,South,9.2,-,N/A,,Clear,190,2013-01-19 22:53:00
6:53 PM,48.0,21.0,34,30.01,10.0,South,9.2,-,N/A,,Clear,190,2013-01-19 23:53:00
7:53 PM,48.9,19.9,32,29.99,10.0,South,11.5,-,N/A,,Clear,190,2013-01-20 00:53:00
8:53 PM,48.0,21.0,34,29.97,10.0,South,15.0,-,N/A,,Clear,190,2013-01-20 01:53:00
9:53 PM,46.9,21.9,37,29.97,10.0,SSW,13.8,19.6,N/A,,Clear,200,2013-01-20 02:53:00
10:53 PM,46.9,23.0,39,29.97,10.0,SSW,12.7,-,N/A,,Clear,210,2013-01-20 03:53:00
11:53 PM,45.0,23.0,42,29.96,10.0,SSW,11.5,21.9,N/A,,Clear,210,2013-01-20 04:53:00